Spanish Camp, Texas
Current Conditions -  °F | °C
As of 5:55 PM on Sunday 23 Nov 2014 (Local Time) from KARM Reporting Station
Clear Clear  
Wind Chill: 68°   Ceiling: Unl
Heat Index: 68°   Visibility: 10mi
Dew Point: 61°   Wind: 12mph
Humidity: 79%   Direction: 180°S
Pressure: 29.6"   Gusts: NA
Location:  29.2926°N, 96.034°W
Report Text: KARM 232355Z AUTO 18010KT 10SM CLR 20/16 A2960 RMK AO2 T01980161 10261 20198
Loading
Personal Weather Stations






























Interactive Weather Map New forecast layout! Learn more

10-Day Weather Forecast

Advertisements
Track Severe Weather on mobile